sensor_id;sensor_type;location;lat;lon;timestamp;P1;durP1;ratioP1;P2;durP2;ratioP2
10142;SDS011;5112;54.088;13.446;2022-07-19T00:00:30;7.60;;;6.90;;
10142;SDS011;5112;54.088;13.446;2022-07-19T00:10:34;6.63;;;6.03;;
10142;SDS011;5112;54.088;13.446;2022-07-19T00:20:36;8.50;;;7.67;;
10142;SDS011;5112;54.088;13.446;2022-07-19T00:30:39;6.97;;;6.30;;
10142;SDS011;5112;54.088;13.446;2022-07-19T00:40:41;6.10;;;5.60;;
10142;SDS011;5112;54.088;13.446;2022-07-19T00:50:45;5.70;;;5.20;;
10142;SDS011;5112;54.088;13.446;2022-07-19T01:00:46;6.27;;;5.70;;
10142;SDS011;5112;54.088;13.446;2022-07-19T01:10:49;6.80;;;6.10;;
10142;SDS011;5112;54.088;13.446;2022-07-19T01:20:52;7.97;;;5.80;;
10142;SDS011;5112;54.088;13.446;2022-07-19T01:30:55;6.00;;;5.50;;
10142;SDS011;5112;54.088;13.446;2022-07-19T01:40:57;5.50;;;5.00;;
10142;SDS011;5112;54.088;13.446;2022-07-19T01:51:01;5.73;;;5.23;;
10142;SDS011;5112;54.088;13.446;2022-07-19T02:01:02;6.40;;;5.80;;
10142;SDS011;5112;54.088;13.446;2022-07-19T02:11:06;6.20;;;5.60;;
10142;SDS011;5112;54.088;13.446;2022-07-19T02:21:23;6.23;;;5.73;;
10142;SDS011;5112;54.088;13.446;2022-07-19T02:31:26;5.97;;;5.47;;
10142;SDS011;5112;54.088;13.446;2022-07-19T02:41:28;5.80;;;5.23;;
10142;SDS011;5112;54.088;13.446;2022-07-19T02:51:33;6.13;;;5.63;;
10142;SDS011;5112;54.088;13.446;2022-07-19T03:01:34;6.27;;;5.67;;
10142;SDS011;5112;54.088;13.446;2022-07-19T03:11:37;6.23;;;5.63;;
10142;SDS011;5112;54.088;13.446;2022-07-19T03:21:39;7.50;;;6.57;;
10142;SDS011;5112;54.088;13.446;2022-07-19T03:31:42;7.40;;;6.57;;
10142;SDS011;5112;54.088;13.446;2022-07-19T03:41:44;7.03;;;6.43;;
10142;SDS011;5112;54.088;13.446;2022-07-19T03:51:47;7.00;;;6.40;;
10142;SDS011;5112;54.088;13.446;2022-07-19T04:01:49;7.23;;;6.53;;
10142;SDS011;5112;54.088;13.446;2022-07-19T04:11:52;6.57;;;5.83;;
10142;SDS011;5112;54.088;13.446;2022-07-19T04:21:53;6.73;;;6.23;;
10142;SDS011;5112;54.088;13.446;2022-07-19T04:31:56;7.27;;;6.57;;
10142;SDS011;5112;54.088;13.446;2022-07-19T04:41:58;8.00;;;7.20;;
10142;SDS011;5112;54.088;13.446;2022-07-19T04:52:01;7.10;;;6.50;;
10142;SDS011;5112;54.088;13.446;2022-07-19T05:02:03;7.23;;;6.53;;
10142;SDS011;5112;54.088;13.446;2022-07-19T05:12:06;7.43;;;6.37;;
10142;SDS011;5112;54.088;13.446;2022-07-19T05:22:09;7.37;;;6.57;;
10142;SDS011;5112;54.088;13.446;2022-07-19T05:32:12;7.67;;;6.97;;
10142;SDS011;5112;54.088;13.446;2022-07-19T05:42:14;7.43;;;6.70;;
10142;SDS011;5112;54.088;13.446;2022-07-19T05:52:17;7.03;;;6.33;;
10142;SDS011;5112;54.088;13.446;2022-07-19T06:02:18;6.80;;;6.20;;
10142;SDS011;5112;54.088;13.446;2022-07-19T06:12:21;7.03;;;6.33;;
10142;SDS011;5112;54.088;13.446;2022-07-19T06:22:23;6.13;;;5.53;;
10142;SDS011;5112;54.088;13.446;2022-07-19T06:32:27;5.93;;;5.40;;
10142;SDS011;5112;54.088;13.446;2022-07-19T06:42:28;7.00;;;5.70;;
10142;SDS011;5112;54.088;13.446;2022-07-19T06:52:32;6.63;;;5.53;;
10142;SDS011;5112;54.088;13.446;2022-07-19T07:02:35;6.27;;;5.47;;
10142;SDS011;5112;54.088;13.446;2022-07-19T07:12:38;5.03;;;4.57;;
10142;SDS011;5112;54.088;13.446;2022-07-19T07:22:40;8.07;;;5.43;;
10142;SDS011;5112;54.088;13.446;2022-07-19T07:32:43;7.67;;;5.20;;
10142;SDS011;5112;54.088;13.446;2022-07-19T07:42:44;5.17;;;4.67;;
10142;SDS011;5112;54.088;13.446;2022-07-19T07:52:47;5.00;;;4.60;;
10142;SDS011;5112;54.088;13.446;2022-07-19T08:02:49;6.50;;;5.33;;
10142;SDS011;5112;54.088;13.446;2022-07-19T08:12:52;6.00;;;4.90;;
10142;SDS011;5112;54.088;13.446;2022-07-19T08:22:55;4.73;;;4.23;;
10142;SDS011;5112;54.088;13.446;2022-07-19T08:32:58;6.20;;;4.77;;
10142;SDS011;5112;54.088;13.446;2022-07-19T08:43:02;5.37;;;4.80;;
10142;SDS011;5112;54.088;13.446;2022-07-19T08:53:06;5.93;;;4.93;;
10142;SDS011;5112;54.088;13.446;2022-07-19T09:03:07;5.37;;;4.83;;
10142;SDS011;5112;54.088;13.446;2022-07-19T09:13:12;5.57;;;4.70;;
10142;SDS011;5112;54.088;13.446;2022-07-19T09:23:14;6.40;;;4.67;;
10142;SDS011;5112;54.088;13.446;2022-07-19T09:33:18;6.43;;;4.70;;
10142;SDS011;5112;54.088;13.446;2022-07-19T09:43:21;5.10;;;4.60;;
10142;SDS011;5112;54.088;13.446;2022-07-19T09:53:27;5.57;;;4.93;;
10142;SDS011;5112;54.088;13.446;2022-07-19T10:03:29;5.17;;;4.67;;
10142;SDS011;5112;54.088;13.446;2022-07-19T10:13:32;5.10;;;4.70;;
10142;SDS011;5112;54.088;13.446;2022-07-19T10:23:34;5.53;;;4.80;;
10142;SDS011;5112;54.088;13.446;2022-07-19T10:33:38;5.20;;;4.70;;
10142;SDS011;5112;54.088;13.446;2022-07-19T10:43:40;5.33;;;4.87;;
10142;SDS011;5112;54.088;13.446;2022-07-19T10:54:10;5.63;;;5.17;;
10142;SDS011;5112;54.088;13.446;2022-07-19T11:04:23;5.23;;;4.73;;
10142;SDS011;5112;54.088;13.446;2022-07-19T11:14:27;4.83;;;4.43;;
10142;SDS011;5112;54.088;13.446;2022-07-19T11:24:29;5.67;;;4.63;;
10142;SDS011;5112;54.088;13.446;2022-07-19T11:34:34;5.70;;;5.17;;
10142;SDS011;5112;54.088;13.446;2022-07-19T11:44:36;6.00;;;5.00;;
10142;SDS011;5112;54.088;13.446;2022-07-19T11:54:39;5.03;;;4.57;;
10142;SDS011;5112;54.088;13.446;2022-07-19T12:04:41;4.93;;;4.53;;
10142;SDS011;5112;54.088;13.446;2022-07-19T12:14:44;5.93;;;5.37;;
10142;SDS011;5112;54.088;13.446;2022-07-19T12:24:46;5.67;;;5.07;;
10142;SDS011;5112;54.088;13.446;2022-07-19T12:34:50;5.40;;;5.00;;
10142;SDS011;5112;54.088;13.446;2022-07-19T12:44:56;5.30;;;4.80;;
10142;SDS011;5112;54.088;13.446;2022-07-19T12:54:59;4.63;;;4.23;;
10142;SDS011;5112;54.088;13.446;2022-07-19T13:05:01;5.10;;;4.70;;
10142;SDS011;5112;54.088;13.446;2022-07-19T13:15:06;5.07;;;4.77;;
10142;SDS011;5112;54.088;13.446;2022-07-19T13:25:09;4.97;;;4.57;;
10142;SDS011;5112;54.088;13.446;2022-07-19T13:35:12;5.00;;;4.60;;
10142;SDS011;5112;54.088;13.446;2022-07-19T13:45:14;4.77;;;4.33;;
10142;SDS011;5112;54.088;13.446;2022-07-19T13:55:17;5.03;;;4.60;;
10142;SDS011;5112;54.088;13.446;2022-07-19T14:05:19;5.23;;;4.73;;
10142;SDS011;5112;54.088;13.446;2022-07-19T14:15:22;4.93;;;4.53;;
10142;SDS011;5112;54.088;13.446;2022-07-19T14:25:24;5.13;;;4.60;;
10142;SDS011;5112;54.088;13.446;2022-07-19T14:35:27;5.40;;;4.97;;
10142;SDS011;5112;54.088;13.446;2022-07-19T14:45:29;4.97;;;4.57;;
10142;SDS011;5112;54.088;13.446;2022-07-19T14:55:32;4.73;;;4.20;;
10142;SDS011;5112;54.088;13.446;2022-07-19T15:05:34;4.83;;;4.43;;
10142;SDS011;5112;54.088;13.446;2022-07-19T15:15:37;4.93;;;4.50;;
10142;SDS011;5112;54.088;13.446;2022-07-19T15:25:39;5.03;;;4.63;;
10142;SDS011;5112;54.088;13.446;2022-07-19T15:35:42;4.47;;;4.07;;
10142;SDS011;5112;54.088;13.446;2022-07-19T15:45:43;5.00;;;4.50;;
10142;SDS011;5112;54.088;13.446;2022-07-19T15:55:47;5.20;;;4.80;;
10142;SDS011;5112;54.088;13.446;2022-07-19T16:05:48;5.43;;;4.90;;
10142;SDS011;5112;54.088;13.446;2022-07-19T16:15:52;5.50;;;5.10;;
10142;SDS011;5112;54.088;13.446;2022-07-19T16:25:53;5.57;;;5.07;;
10142;SDS011;5112;54.088;13.446;2022-07-19T16:35:56;5.43;;;4.93;;
10142;SDS011;5112;54.088;13.446;2022-07-19T16:45:58;5.03;;;4.63;;
10142;SDS011;5112;54.088;13.446;2022-07-19T16:56:01;5.03;;;4.53;;
10142;SDS011;5112;54.088;13.446;2022-07-19T17:06:05;5.83;;;5.33;;
10142;SDS011;5112;54.088;13.446;2022-07-19T17:16:08;4.97;;;4.57;;
10142;SDS011;5112;54.088;13.446;2022-07-19T17:26:12;4.90;;;4.50;;
10142;SDS011;5112;54.088;13.446;2022-07-19T17:36:16;5.43;;;4.47;;
10142;SDS011;5112;54.088;13.446;2022-07-19T17:46:18;5.63;;;5.03;;
10142;SDS011;5112;54.088;13.446;2022-07-19T17:56:22;5.17;;;4.67;;
10142;SDS011;5112;54.088;13.446;2022-07-19T18:06:24;5.87;;;5.37;;
10142;SDS011;5112;54.088;13.446;2022-07-19T18:16:27;5.73;;;5.00;;
10142;SDS011;5112;54.088;13.446;2022-07-19T18:26:28;6.17;;;5.00;;
10142;SDS011;5112;54.088;13.446;2022-07-19T18:36:31;5.93;;;5.37;;
10142;SDS011;5112;54.088;13.446;2022-07-19T18:46:33;6.63;;;5.53;;
10142;SDS011;5112;54.088;13.446;2022-07-19T18:56:36;6.33;;;5.40;;
10142;SDS011;5112;54.088;13.446;2022-07-19T19:06:38;5.93;;;5.33;;
10142;SDS011;5112;54.088;13.446;2022-07-19T19:16:41;5.67;;;5.17;;
10142;SDS011;5112;54.088;13.446;2022-07-19T19:26:43;5.80;;;5.20;;
10142;SDS011;5112;54.088;13.446;2022-07-19T19:36:46;5.37;;;4.83;;
10142;SDS011;5112;54.088;13.446;2022-07-19T19:46:48;5.33;;;4.83;;
10142;SDS011;5112;54.088;13.446;2022-07-19T19:56:52;5.67;;;5.10;;
10142;SDS011;5112;54.088;13.446;2022-07-19T20:06:54;5.70;;;5.20;;
10142;SDS011;5112;54.088;13.446;2022-07-19T20:16:58;6.23;;;5.73;;
10142;SDS011;5112;54.088;13.446;2022-07-19T20:27:00;6.47;;;5.73;;
10142;SDS011;5112;54.088;13.446;2022-07-19T20:37:04;5.80;;;5.30;;
10142;SDS011;5112;54.088;13.446;2022-07-19T20:47:05;6.97;;;6.37;;
10142;SDS011;5112;54.088;13.446;2022-07-19T20:57:08;6.53;;;6.00;;
10142;SDS011;5112;54.088;13.446;2022-07-19T21:07:10;7.07;;;5.93;;
10142;SDS011;5112;54.088;13.446;2022-07-19T21:17:13;6.20;;;5.70;;
10142;SDS011;5112;54.088;13.446;2022-07-19T21:27:15;7.17;;;6.57;;
10142;SDS011;5112;54.088;13.446;2022-07-19T21:37:18;8.53;;;7.73;;
10142;SDS011;5112;54.088;13.446;2022-07-19T21:47:20;8.27;;;7.57;;
10142;SDS011;5112;54.088;13.446;2022-07-19T21:57:23;8.23;;;7.43;;
10142;SDS011;5112;54.088;13.446;2022-07-19T22:07:25;7.20;;;6.60;;
10142;SDS011;5112;54.088;13.446;2022-07-19T22:17:28;6.97;;;6.37;;
10142;SDS011;5112;54.088;13.446;2022-07-19T22:27:30;6.63;;;6.13;;
10142;SDS011;5112;54.088;13.446;2022-07-19T22:37:33;7.13;;;5.97;;
10142;SDS011;5112;54.088;13.446;2022-07-19T22:47:34;5.73;;;5.23;;
10142;SDS011;5112;54.088;13.446;2022-07-19T22:57:37;6.43;;;5.93;;
10142;SDS011;5112;54.088;13.446;2022-07-19T23:07:39;6.70;;;6.20;;
10142;SDS011;5112;54.088;13.446;2022-07-19T23:17:42;7.47;;;6.77;;
10142;SDS011;5112;54.088;13.446;2022-07-19T23:27:44;6.73;;;6.23;;
10142;SDS011;5112;54.088;13.446;2022-07-19T23:37:47;7.23;;;6.53;;
10142;SDS011;5112;54.088;13.446;2022-07-19T23:47:48;6.43;;;5.83;;
10142;SDS011;5112;54.088;13.446;2022-07-19T23:57:51;6.00;;;5.50;;
